createdAt,value
2022-10-25T00:00:09.837Z,0.30
2022-10-25T00:01:10.179Z,0.20
2022-10-25T00:02:10.447Z,0.30
2022-10-25T00:03:10.717Z,0.30
2022-10-25T00:04:11.031Z,0.20
2022-10-25T00:05:11.266Z,0.30
2022-10-25T00:06:11.521Z,0.20
2022-10-25T00:07:11.759Z,0.30
2022-10-25T00:08:12.006Z,0.20
2022-10-25T00:09:12.248Z,0.30
2022-10-25T00:10:12.480Z,0.30
2022-10-25T00:11:12.721Z,0.30
2022-10-25T00:12:13.038Z,0.20
2022-10-25T00:13:13.281Z,0.20
2022-10-25T00:14:13.523Z,0.30
2022-10-25T00:15:13.774Z,0.30
2022-10-25T00:16:14.020Z,0.30
2022-10-25T00:17:14.263Z,0.20
2022-10-25T00:18:14.521Z,0.20
2022-10-25T00:19:14.752Z,0.30
2022-10-25T00:20:15.053Z,0.20
2022-10-25T00:21:15.293Z,0.30
2022-10-25T00:22:15.544Z,0.40
2022-10-25T00:23:15.784Z,0.20
2022-10-25T00:24:16.033Z,0.20
2022-10-25T00:25:16.275Z,0.20
2022-10-25T00:26:16.517Z,0.20
2022-10-25T00:27:16.755Z,0.30
2022-10-25T00:28:17.007Z,0.30
2022-10-25T00:29:17.321Z,0.30
2022-10-25T00:30:17.555Z,0.30
2022-10-25T00:31:17.804Z,0.30
2022-10-25T00:32:18.044Z,0.20
2022-10-25T00:33:18.279Z,0.40
2022-10-25T00:34:18.525Z,0.20
2022-10-25T00:35:18.770Z,0.40
2022-10-25T00:36:19.011Z,0.20
2022-10-25T00:37:19.251Z,0.20
2022-10-25T00:38:19.496Z,0.20
2022-10-25T00:39:19.728Z,0.20
2022-10-25T00:40:20.042Z,0.30
2022-10-25T00:41:20.240Z,0.20
2022-10-25T00:42:20.491Z,0.30
2022-10-25T00:43:20.730Z,0.20
2022-10-25T00:44:20.980Z,0.20
2022-10-25T00:45:21.261Z,0.20
2022-10-25T00:46:21.501Z,0.30
2022-10-25T00:47:21.760Z,0.30
2022-10-25T00:48:22.001Z,0.30
2022-10-25T00:49:22.253Z,0.20
2022-10-25T00:50:22.494Z,0.30
2022-10-25T00:51:22.774Z,0.30
2022-10-25T00:52:23.032Z,0.20
2022-10-25T00:53:23.354Z,0.20
2022-10-25T00:54:23.577Z,0.20
2022-10-25T00:55:23.814Z,0.10
2022-10-25T00:56:24.054Z,0.10
2022-10-25T00:57:24.302Z,0.20
2022-10-25T00:58:24.543Z,0.20
2022-10-25T00:59:24.792Z,0.30
2022-10-25T01:00:25.047Z,0.20
2022-10-25T01:01:25.397Z,0.20
2022-10-25T01:02:25.586Z,0.20
2022-10-25T01:03:25.836Z,0.20
2022-10-25T01:04:26.078Z,0.20
2022-10-25T01:05:26.324Z,0.30
2022-10-25T01:06:26.564Z,0.20
2022-10-25T01:07:26.847Z,0.20
2022-10-25T01:08:27.098Z,0.10
2022-10-25T01:09:27.338Z,0.30
2022-10-25T01:10:27.578Z,0.30
2022-10-25T01:11:27.828Z,0.20
2022-10-25T01:12:28.071Z,0.30
2022-10-25T01:13:28.317Z,0.30
2022-10-25T01:14:28.549Z,0.30
2022-10-25T01:15:28.799Z,0.30
2022-10-25T01:16:29.037Z,0.20
2022-10-25T01:17:29.280Z,0.30
2022-10-25T01:18:29.521Z,0.20
2022-10-25T01:19:29.815Z,0.30
2022-10-25T01:20:30.052Z,0.20
2022-10-25T01:21:30.292Z,0.20
2022-10-25T01:22:30.543Z,0.10
2022-10-25T01:23:30.792Z,0.30
2022-10-25T01:24:31.043Z,0.30
2022-10-25T01:25:31.283Z,0.30
2022-10-25T01:26:31.545Z,0.30
2022-10-25T01:27:31.804Z,0.50
2022-10-25T01:28:32.045Z,0.30
2022-10-25T01:29:32.287Z,0.20
2022-10-25T01:30:32.535Z,0.20
2022-10-25T01:31:32.775Z,0.30
2022-10-25T01:32:33.025Z,0.20
2022-10-25T01:33:33.267Z,0.20
2022-10-25T01:34:33.506Z,0.30
2022-10-25T01:35:33.758Z,0.30
2022-10-25T01:36:33.997Z,0.20
2022-10-25T01:37:34.237Z,0.20
2022-10-25T01:38:34.485Z,0.30
2022-10-25T01:39:34.727Z,0.30
2022-10-25T01:40:34.978Z,0.20
2022-10-25T01:41:35.216Z,0.30
2022-10-25T01:42:35.459Z,0.20
2022-10-25T01:43:35.699Z,0.20
2022-10-25T01:45:36.169Z,0.20
2022-10-25T01:46:36.420Z,0.30
2022-10-25T01:47:36.665Z,0.20
2022-10-25T01:48:36.910Z,0.20
2022-10-25T01:49:37.151Z,0.10
2022-10-25T01:50:37.412Z,0.30
2022-10-25T01:51:37.651Z,0.20
2022-10-25T01:52:37.911Z,0.30
2022-10-25T01:53:38.154Z,0.10
2022-10-25T01:54:38.412Z,0.20
2022-10-25T01:55:38.654Z,0.20
2022-10-25T01:56:38.910Z,0.20
2022-10-25T01:57:39.156Z,0.20
2022-10-25T01:58:39.403Z,0.20
2022-10-25T01:59:39.644Z,0.10
2022-10-25T02:00:39.956Z,0.20
2022-10-25T02:01:40.373Z,0.20
2022-10-25T02:02:40.506Z,0.20
2022-10-25T02:03:40.745Z,0.30
2022-10-25T02:04:40.995Z,0.30
2022-10-25T02:05:41.235Z,0.20
2022-10-25T02:06:41.506Z,0.20
2022-10-25T02:07:41.745Z,0.20
2022-10-25T02:08:41.997Z,0.20
2022-10-25T02:09:42.237Z,0.20
2022-10-25T02:10:42.505Z,0.30
2022-10-25T02:11:42.747Z,0.20
2022-10-25T02:12:43.107Z,0.20
2022-10-25T02:13:43.238Z,0.20
2022-10-25T02:14:43.498Z,0.10
2022-10-25T02:15:43.741Z,0.30
2022-10-25T02:16:43.989Z,0.30
2022-10-25T02:17:44.240Z,0.20
2022-10-25T02:18:44.504Z,0.10
2022-10-25T02:19:44.753Z,0.20
2022-10-25T02:20:46.715Z,0.30
2022-10-25T02:21:45.341Z,0.20
2022-10-25T02:22:45.900Z,0.20
2022-10-25T02:23:45.861Z,0.20
2022-10-25T02:24:46.111Z,0.20
2022-10-25T02:25:46.362Z,0.20
2022-10-25T02:26:46.640Z,0.20
2022-10-25T02:27:47.152Z,0.20
2022-10-25T02:28:47.162Z,0.10
2022-10-25T02:29:47.472Z,0.20
2022-10-25T02:30:47.713Z,0.30
2022-10-25T02:31:47.961Z,0.20
2022-10-25T02:32:48.207Z,0.20
2022-10-25T02:33:48.458Z,0.10
2022-10-25T02:34:48.704Z,0.20
2022-10-25T02:35:48.959Z,0.30
2022-10-25T02:36:49.197Z,0.20
2022-10-25T02:37:49.639Z,0.20
2022-10-25T02:38:49.737Z,0.30
2022-10-25T02:39:49.976Z,0.20
2022-10-25T02:40:50.227Z,0.10
2022-10-25T02:41:50.469Z,0.20
2022-10-25T02:42:50.717Z,0.20
2022-10-25T02:43:50.959Z,0.20
2022-10-25T02:44:51.219Z,0.20
2022-10-25T02:45:51.459Z,0.10
2022-10-25T02:46:51.700Z,0.20
2022-10-25T02:47:51.958Z,0.30
2022-10-25T02:48:52.220Z,0.20
2022-10-25T02:49:52.460Z,0.10
2022-10-25T02:50:52.698Z,0.20
2022-10-25T02:51:53.029Z,0.20
2022-10-25T02:52:53.210Z,0.20
2022-10-25T02:53:53.454Z,0.10
2022-10-25T02:54:53.697Z,0.10
2022-10-25T02:55:53.938Z,0.30
2022-10-25T02:56:54.179Z,0.20
2022-10-25T02:57:54.431Z,0.10
2022-10-25T02:58:54.692Z,0.10
2022-10-25T02:59:55.014Z,0.20
2022-10-25T03:00:55.368Z,0.20
2022-10-25T03:01:55.577Z,0.20
2022-10-25T03:02:55.783Z,0.20
2022-10-25T03:03:56.023Z,0.10
2022-10-25T03:04:56.274Z,0.10
2022-10-25T03:05:56.525Z,0.30
2022-10-25T03:06:56.810Z,0.20
2022-10-25T03:07:57.027Z,0.10
2022-10-25T03:08:57.274Z,0.10
2022-10-25T03:09:57.522Z,0.10
2022-10-25T03:10:57.768Z,0.20
2022-10-25T03:11:58.010Z,0.20
2022-10-25T03:12:58.262Z,0.20
2022-10-25T03:13:58.499Z,0.20
2022-10-25T03:14:58.745Z,0.20
2022-10-25T03:15:58.977Z,0.30
2022-10-25T03:16:59.219Z,0.20
2022-10-25T03:17:59.466Z,0.20
2022-10-25T03:18:59.711Z,0.20
2022-10-25T03:19:59.948Z,0.10
2022-10-25T03:21:00.197Z,0.20
2022-10-25T03:22:00.441Z,0.10
2022-10-25T03:23:00.689Z,0.10
2022-10-25T03:24:00.934Z,0.20
2022-10-25T03:25:01.203Z,0.30
2022-10-25T03:26:01.457Z,0.20
2022-10-25T03:27:01.700Z,0.20
2022-10-25T03:28:01.952Z,0.10
2022-10-25T03:29:02.193Z,0.30
2022-10-25T03:30:02.444Z,0.30
2022-10-25T03:31:02.682Z,0.20
2022-10-25T03:32:02.922Z,0.10
2022-10-25T03:33:03.173Z,0.20
2022-10-25T03:34:03.425Z,0.20
2022-10-25T03:35:03.664Z,0.10
2022-10-25T03:36:03.904Z,0.30
2022-10-25T03:37:04.163Z,0.20
2022-10-25T03:38:04.413Z,0.10
2022-10-25T03:39:04.674Z,0.20
2022-10-25T03:40:04.904Z,0.20
2022-10-25T03:41:05.170Z,0.20
2022-10-25T03:42:05.405Z,0.10
2022-10-25T03:43:05.646Z,0.10
2022-10-25T03:44:05.886Z,0.20
2022-10-25T03:45:06.135Z,0.20
2022-10-25T03:46:06.370Z,0.20
2022-10-25T03:47:06.614Z,0.20
2022-10-25T03:48:06.857Z,0.30
2022-10-25T03:49:07.108Z,0.20
2022-10-25T03:50:07.354Z,0.20
2022-10-25T03:51:07.596Z,0.10
2022-10-25T03:52:07.829Z,0.20
2022-10-25T03:54:08.299Z,0.50
2022-10-25T03:55:08.550Z,0.20
2022-10-25T03:56:08.789Z,0.10
2022-10-25T03:57:09.042Z,0.20
2022-10-25T03:58:09.281Z,0.10
2022-10-25T03:59:09.531Z,0.20
2022-10-25T04:00:09.775Z,0.10
2022-10-25T04:01:10.169Z,0.30
2022-10-25T04:02:10.474Z,0.30
2022-10-25T04:03:10.580Z,0.20
2022-10-25T04:04:10.812Z,0.20
2022-10-25T04:05:11.053Z,0.20
2022-10-25T04:06:11.292Z,0.30
2022-10-25T04:07:11.533Z,0.20
2022-10-25T04:08:11.783Z,0.10
2022-10-25T04:09:12.024Z,0.20
2022-10-25T04:10:12.272Z,0.20
2022-10-25T04:11:12.515Z,0.20
2022-10-25T04:12:12.755Z,0.20
2022-10-25T04:13:13.005Z,0.30
2022-10-25T04:14:13.246Z,0.20
2022-10-25T04:15:13.486Z,0.20
2022-10-25T04:16:16.986Z,0.20
2022-10-25T04:17:15.038Z,0.20
2022-10-25T04:18:14.337Z,0.30
2022-10-25T04:19:14.587Z,0.20
2022-10-25T04:20:14.828Z,0.10
2022-10-25T04:21:15.087Z,0.20
2022-10-25T04:22:15.348Z,0.20
2022-10-25T04:23:15.598Z,0.20
2022-10-25T04:24:15.836Z,0.10
2022-10-25T04:25:16.079Z,0.30
2022-10-25T04:26:16.319Z,0.20
2022-10-25T04:27:16.629Z,0.20
2022-10-25T04:28:16.869Z,0.30
2022-10-25T04:29:17.120Z,0.20
2022-10-25T04:30:17.360Z,0.20
2022-10-25T04:31:17.620Z,0.10
2022-10-25T04:32:20.855Z,0.20
2022-10-25T04:33:18.171Z,0.20
2022-10-25T04:34:18.411Z,0.20
2022-10-25T04:35:18.652Z,0.20
2022-10-25T04:36:18.895Z,0.20
2022-10-25T04:37:19.132Z,0.10
2022-10-25T04:38:19.373Z,0.10
2022-10-25T04:39:19.620Z,0.10
2022-10-25T04:40:24.048Z,0.20
2022-10-25T04:41:21.086Z,0.20
2022-10-25T04:42:20.393Z,0.20
2022-10-25T04:43:20.635Z,0.20
2022-10-25T04:44:20.885Z,0.20
2022-10-25T04:45:21.135Z,0.20
2022-10-25T04:46:21.375Z,0.20
2022-10-25T04:47:21.627Z,0.10
2022-10-25T04:48:21.887Z,0.10
2022-10-25T04:49:22.127Z,0.30
2022-10-25T04:50:22.376Z,0.20
2022-10-25T04:51:22.616Z,0.30
2022-10-25T04:52:22.863Z,0.20
2022-10-25T04:53:23.108Z,0.20
2022-10-25T04:54:23.345Z,0.10
2022-10-25T04:55:23.586Z,0.10
2022-10-25T04:56:23.819Z,0.20
2022-10-25T04:57:24.067Z,0.20
2022-10-25T04:58:27.490Z,0.10
2022-10-25T04:59:25.549Z,0.30
2022-10-25T05:00:24.850Z,0.10
2022-10-25T05:01:25.215Z,0.20
2022-10-25T05:02:25.474Z,0.20
2022-10-25T05:03:25.704Z,0.20
2022-10-25T05:04:25.952Z,0.20
2022-10-25T05:05:26.191Z,0.20
2022-10-25T05:06:26.431Z,0.30
2022-10-25T05:07:26.684Z,0.30
2022-10-25T05:08:26.923Z,0.30
2022-10-25T05:09:27.182Z,0.10
2022-10-25T05:10:27.432Z,0.20
2022-10-25T05:11:27.733Z,0.20
2022-10-25T05:12:27.960Z,0.20
2022-10-25T05:13:28.202Z,0.20
2022-10-25T05:14:28.444Z,0.10
2022-10-25T05:15:28.692Z,0.20
2022-10-25T05:16:28.938Z,0.20
2022-10-25T05:17:29.175Z,0.30
2022-10-25T05:18:29.425Z,0.20
2022-10-25T05:19:29.667Z,0.20
2022-10-25T05:20:29.906Z,0.30
2022-10-25T05:21:30.153Z,0.10
2022-10-25T05:22:30.407Z,0.20
2022-10-25T05:23:30.668Z,0.20
2022-10-25T05:24:30.946Z,0.20
2022-10-25T05:25:31.187Z,0.20
2022-10-25T05:26:31.441Z,0.20
2022-10-25T05:27:31.670Z,0.10
2022-10-25T05:28:31.918Z,0.30
2022-10-25T05:29:32.159Z,0.20
2022-10-25T05:30:32.409Z,0.30
2022-10-25T05:31:32.647Z,0.30
2022-10-25T05:32:32.890Z,0.20
2022-10-25T05:33:33.130Z,0.10
2022-10-25T05:34:33.371Z,0.30
2022-10-25T05:35:33.621Z,0.20
2022-10-25T05:36:33.864Z,0.10
2022-10-25T05:37:34.102Z,0.20
2022-10-25T05:38:37.596Z,0.10
2022-10-25T05:39:34.613Z,0.30
2022-10-25T05:40:34.863Z,0.20
2022-10-25T05:41:37.076Z,0.20
2022-10-25T05:42:35.454Z,0.20
2022-10-25T05:43:35.703Z,0.10
2022-10-25T05:44:35.944Z,0.20
2022-10-25T05:45:36.183Z,0.20
2022-10-25T05:46:36.431Z,0.10
2022-10-25T05:47:36.684Z,0.30
2022-10-25T05:48:36.936Z,0.20
2022-10-25T05:49:37.185Z,0.30
2022-10-25T05:50:37.457Z,0.20
2022-10-25T05:51:37.742Z,0.20
2022-10-25T05:52:37.997Z,0.10
2022-10-25T05:53:38.250Z,0.30
2022-10-25T05:54:38.495Z,0.20
2022-10-25T05:55:38.737Z,0.10
2022-10-25T05:56:38.982Z,0.10
2022-10-25T05:57:39.267Z,0.10
2022-10-25T05:58:39.515Z,0.30
2022-10-25T05:59:39.759Z,0.30
2022-10-25T06:00:40.011Z,0.20
2022-10-25T06:01:40.465Z,0.30
2022-10-25T06:02:40.600Z,0.20
2022-10-25T06:03:40.853Z,0.20
2022-10-25T06:04:41.109Z,0.30
2022-10-25T06:05:41.330Z,0.20
2022-10-25T06:06:41.573Z,0.20
2022-10-25T06:07:41.831Z,0.20
2022-10-25T06:08:42.091Z,0.20
2022-10-25T06:09:42.351Z,0.20
2022-10-25T06:10:42.656Z,0.30
2022-10-25T06:11:42.915Z,0.30
2022-10-25T06:12:43.163Z,0.20
2022-10-25T06:13:43.461Z,0.20
2022-10-25T06:14:43.713Z,0.20
2022-10-25T06:15:43.972Z,0.20
2022-10-25T06:16:44.238Z,0.20
2022-10-25T06:17:44.484Z,0.30
2022-10-25T06:18:44.745Z,0.20
2022-10-25T06:19:45.005Z,0.20
2022-10-25T06:20:45.273Z,0.20
2022-10-25T06:21:45.525Z,0.20
2022-10-25T06:22:46.058Z,0.20
2022-10-25T06:23:46.103Z,0.10
2022-10-25T06:24:46.365Z,0.30
2022-10-25T06:25:46.617Z,0.30
2022-10-25T06:26:46.876Z,0.20
2022-10-25T06:27:47.129Z,0.20
2022-10-25T06:28:47.387Z,0.30
2022-10-25T06:29:47.646Z,0.30
2022-10-25T06:30:47.899Z,0.30
2022-10-25T06:31:48.150Z,0.30
2022-10-25T06:32:48.785Z,0.20
2022-10-25T06:33:48.669Z,0.20
2022-10-25T06:34:48.919Z,0.50
2022-10-25T06:35:49.190Z,0.30
2022-10-25T06:36:49.441Z,0.30
2022-10-25T06:37:49.699Z,0.40
2022-10-25T06:38:49.970Z,0.40
2022-10-25T06:39:50.221Z,0.30
2022-10-25T06:40:50.491Z,0.30
2022-10-25T06:41:50.741Z,0.40
2022-10-25T06:42:51.002Z,0.30
2022-10-25T06:43:51.272Z,0.30
2022-10-25T06:44:51.533Z,0.30
2022-10-25T06:45:51.797Z,0.30
2022-10-25T06:47:15.910Z,0.30
2022-10-25T06:47:53.302Z,0.30
2022-10-25T06:48:52.623Z,0.30
2022-10-25T06:49:52.874Z,0.30
2022-10-25T06:50:53.134Z,0.40
2022-10-25T06:51:53.384Z,0.40
2022-10-25T06:52:53.646Z,0.30
2022-10-25T06:53:53.915Z,0.30
2022-10-25T06:54:54.176Z,0.20
2022-10-25T06:55:54.438Z,0.60
2022-10-25T06:56:54.697Z,0.40
2022-10-25T06:57:54.955Z,0.20
2022-10-25T06:58:55.207Z,0.40
2022-10-25T06:59:55.492Z,0.60
2022-10-25T07:00:55.791Z,0.50
2022-10-25T07:01:56.189Z,0.60
2022-10-25T07:02:56.368Z,1.00
2022-10-25T07:03:56.618Z,0.40
2022-10-25T07:04:56.880Z,0.50
2022-10-25T07:05:57.150Z,0.50
2022-10-25T07:06:57.411Z,0.60
2022-10-25T07:07:57.660Z,0.50
2022-10-25T07:08:57.921Z,0.50
2022-10-25T07:09:58.181Z,0.60
2022-10-25T07:10:58.432Z,0.40
2022-10-25T07:11:58.692Z,0.60
2022-10-25T07:12:58.952Z,0.50
2022-10-25T07:13:59.220Z,0.50
2022-10-25T07:14:59.482Z,0.40
2022-10-25T07:15:59.753Z,0.50
2022-10-25T07:17:00.020Z,0.40
2022-10-25T07:18:00.275Z,0.40
2022-10-25T07:19:00.564Z,0.50
2022-10-25T07:20:00.824Z,0.50
2022-10-25T07:21:01.092Z,0.50
2022-10-25T07:22:01.335Z,0.60
2022-10-25T07:23:03.338Z,0.70
2022-10-25T07:24:01.875Z,0.60
2022-10-25T07:25:02.172Z,1.00
2022-10-25T07:26:02.436Z,0.80
2022-10-25T07:27:02.706Z,0.50
2022-10-25T07:28:02.996Z,0.60
2022-10-25T07:29:03.256Z,0.50
2022-10-25T07:30:03.507Z,0.60
2022-10-25T07:31:03.767Z,0.70
2022-10-25T07:32:04.018Z,0.60
2022-10-25T07:33:04.279Z,0.80
2022-10-25T07:34:04.540Z,0.50
2022-10-25T07:35:04.799Z,0.60
2022-10-25T07:36:06.466Z,0.50
2022-10-25T07:37:05.329Z,0.70
2022-10-25T07:38:05.588Z,0.70
2022-10-25T07:39:05.869Z,0.50
2022-10-25T07:40:06.142Z,0.50
2022-10-25T07:41:06.404Z,0.50
2022-10-25T07:42:06.651Z,0.50
2022-10-25T07:43:06.911Z,0.60
2022-10-25T07:44:09.540Z,0.60
2022-10-25T07:45:07.492Z,0.60
2022-10-25T07:46:07.752Z,0.40
2022-10-25T07:47:08.022Z,0.60
2022-10-25T07:48:08.334Z,0.50
2022-10-25T07:49:08.595Z,0.70
2022-10-25T07:50:08.854Z,0.60
2022-10-25T07:51:09.117Z,0.40
2022-10-25T07:52:09.391Z,0.40
2022-10-25T07:53:09.663Z,0.60
2022-10-25T07:54:09.936Z,0.50
2022-10-25T07:55:10.206Z,0.50
2022-10-25T07:56:10.496Z,0.50
2022-10-25T07:57:10.777Z,0.40
2022-10-25T07:58:11.047Z,0.50
2022-10-25T07:59:11.358Z,0.40
2022-10-25T08:00:11.636Z,0.60
2022-10-25T08:01:11.992Z,0.30
2022-10-25T08:02:12.209Z,0.40
2022-10-25T08:03:12.539Z,0.50
2022-10-25T08:04:12.777Z,0.90
2022-10-25T08:05:13.049Z,0.50
2022-10-25T08:06:13.320Z,0.40
2022-10-25T08:07:13.701Z,0.50
2022-10-25T08:08:13.920Z,0.40
2022-10-25T08:09:15.114Z,0.50
2022-10-25T08:10:15.440Z,0.40
2022-10-25T08:11:14.760Z,0.40
2022-10-25T08:12:17.042Z,0.70
2022-10-25T08:13:16.270Z,0.60
2022-10-25T08:14:15.644Z,0.40
2022-10-25T08:15:15.892Z,0.70
2022-10-25T08:16:16.161Z,0.50
2022-10-25T08:17:16.422Z,0.60
2022-10-25T08:18:16.700Z,0.50
2022-10-25T08:19:16.971Z,0.50
2022-10-25T08:20:17.233Z,0.50
2022-10-25T08:21:17.502Z,0.50
2022-10-25T08:22:17.775Z,0.60
2022-10-25T08:23:18.054Z,0.40
2022-10-25T08:25:19.953Z,0.30
2022-10-25T08:26:18.953Z,0.30
2022-10-25T08:27:19.225Z,0.60
2022-10-25T08:28:20.137Z,0.50
2022-10-25T08:29:19.836Z,0.50
2022-10-25T08:30:20.240Z,0.40
2022-10-25T08:31:20.405Z,0.40
2022-10-25T08:32:20.666Z,0.50
2022-10-25T08:33:22.588Z,0.40
2022-10-25T08:34:21.177Z,0.30
2022-10-25T08:35:21.455Z,0.50
2022-10-25T08:36:21.718Z,0.40
2022-10-25T08:37:21.996Z,0.80
2022-10-25T08:38:22.268Z,0.60
2022-10-25T08:39:22.537Z,0.60
2022-10-25T08:40:22.814Z,0.50
2022-10-25T08:41:23.079Z,0.60
2022-10-25T08:42:23.350Z,0.30
2022-10-25T08:43:23.637Z,0.30
2022-10-25T08:44:23.900Z,0.30
2022-10-25T08:45:24.211Z,0.40
2022-10-25T08:46:24.480Z,0.40
2022-10-25T08:47:24.763Z,0.70
2022-10-25T08:48:25.121Z,0.40
2022-10-25T08:49:25.352Z,0.50
2022-10-25T08:50:25.619Z,0.40
2022-10-25T08:51:25.885Z,0.60
2022-10-25T08:52:26.154Z,0.50
2022-10-25T08:53:26.427Z,0.30
2022-10-25T08:54:26.699Z,0.70
2022-10-25T08:55:26.974Z,0.40
2022-10-25T08:56:28.224Z,0.40
2022-10-25T08:57:27.542Z,0.30
2022-10-25T08:58:28.256Z,0.40
2022-10-25T08:59:28.074Z,0.50
2022-10-25T09:00:28.345Z,0.50
2022-10-25T09:01:28.726Z,0.50
2022-10-25T09:02:28.894Z,0.40
2022-10-25T09:03:30.806Z,0.50
2022-10-25T09:04:29.417Z,0.70
2022-10-25T09:05:29.699Z,0.40
2022-10-25T09:06:29.967Z,0.60
2022-10-25T09:07:30.256Z,0.60
2022-10-25T09:08:30.837Z,0.60
2022-10-25T09:09:30.788Z,0.70
2022-10-25T09:10:31.079Z,0.60
2022-10-25T09:11:31.361Z,0.50
2022-10-25T09:12:31.629Z,0.60
2022-10-25T09:13:32.767Z,0.50
2022-10-25T09:14:32.239Z,0.40
2022-10-25T09:15:32.533Z,0.50
2022-10-25T09:16:32.807Z,0.50
2022-10-25T09:17:33.080Z,0.60
2022-10-25T09:18:33.351Z,0.50
2022-10-25T09:19:34.035Z,1.00
2022-10-25T09:20:33.852Z,0.50
2022-10-25T09:21:34.130Z,0.70
2022-10-25T09:22:34.395Z,0.50
2022-10-25T09:23:34.704Z,0.50
2022-10-25T09:24:34.973Z,0.70
2022-10-25T09:25:35.254Z,0.60
2022-10-25T09:26:35.532Z,0.50
2022-10-25T09:27:35.803Z,0.60
2022-10-25T09:28:36.144Z,0.90
2022-10-25T09:29:36.375Z,0.60
2022-10-25T09:30:36.644Z,0.60
2022-10-25T09:31:36.923Z,0.80
2022-10-25T09:32:37.187Z,0.50
2022-10-25T09:33:38.165Z,0.70
2022-10-25T09:34:37.737Z,0.70
2022-10-25T09:35:38.012Z,0.50
2022-10-25T09:36:38.301Z,0.70
2022-10-25T09:37:38.595Z,0.70
2022-10-25T09:38:38.880Z,0.70
2022-10-25T09:39:39.148Z,0.50
2022-10-25T09:40:45.228Z,0.90
2022-10-25T09:41:40.680Z,0.80
2022-10-25T09:42:40.019Z,0.70
2022-10-25T09:43:41.109Z,1.00
2022-10-25T09:44:40.567Z,0.70
2022-10-25T09:45:42.080Z,0.70
2022-10-25T09:46:41.160Z,0.80
2022-10-25T09:47:41.443Z,0.70
2022-10-25T09:48:42.662Z,0.80
2022-10-25T09:49:41.990Z,0.60
2022-10-25T09:50:42.261Z,0.70
2022-10-25T09:51:42.542Z,0.70
2022-10-25T09:52:42.817Z,0.80
2022-10-25T09:53:43.101Z,0.70
2022-10-25T09:54:43.374Z,0.60
2022-10-25T09:55:43.653Z,0.80
2022-10-25T09:56:43.933Z,0.60
2022-10-25T09:57:44.469Z,1.10
2022-10-25T09:58:44.504Z,0.60
2022-10-25T09:59:44.773Z,0.70
2022-10-25T10:00:45.044Z,0.80
2022-10-25T10:01:45.382Z,0.90
2022-10-25T10:02:45.680Z,0.70
2022-10-25T10:03:50.273Z,0.50
2022-10-25T10:04:47.225Z,0.60
2022-10-25T10:05:46.556Z,0.60
2022-10-25T10:06:46.835Z,0.60
2022-10-25T10:07:47.490Z,0.50
2022-10-25T10:08:47.377Z,0.60
2022-10-25T10:09:47.656Z,0.50
2022-10-25T10:10:47.930Z,0.40
2022-10-25T10:11:48.201Z,0.40
2022-10-25T10:12:48.619Z,0.40
2022-10-25T10:13:48.728Z,0.40
2022-10-25T10:14:48.998Z,0.40
2022-10-25T10:15:49.279Z,0.50
2022-10-25T10:16:49.549Z,0.40
2022-10-25T10:17:50.101Z,0.60
2022-10-25T10:18:55.580Z,0.40
2022-10-25T10:19:50.489Z,0.60
2022-10-25T10:20:50.759Z,0.50
2022-10-25T10:21:51.031Z,0.40
2022-10-25T10:22:51.336Z,0.50
2022-10-25T10:23:51.575Z,0.60
2022-10-25T10:24:51.851Z,0.30
2022-10-25T10:25:52.173Z,0.50
2022-10-25T10:26:52.432Z,0.30
2022-10-25T10:27:52.700Z,1.00
2022-10-25T10:28:52.979Z,0.30
2022-10-25T10:29:53.243Z,0.40
2022-10-25T10:30:53.525Z,0.30
2022-10-25T10:31:53.785Z,0.30
2022-10-25T10:32:57.052Z,0.50
2022-10-25T10:33:54.314Z,0.30
2022-10-25T10:34:55.566Z,0.30
2022-10-25T10:35:54.896Z,0.40
2022-10-25T10:36:55.177Z,0.40
2022-10-25T10:37:55.445Z,0.30
2022-10-25T10:38:55.717Z,0.40
2022-10-25T10:39:56.002Z,0.30
2022-10-25T10:40:56.267Z,0.30
2022-10-25T10:41:56.528Z,0.30
2022-10-25T10:42:59.041Z,0.30
2022-10-25T10:43:57.128Z,0.40
2022-10-25T10:44:57.398Z,0.40
2022-10-25T10:45:57.658Z,0.50
2022-10-25T10:46:57.926Z,0.30
2022-10-25T10:47:58.183Z,0.30
2022-10-25T10:48:58.437Z,0.30
2022-10-25T10:49:59.507Z,0.40
2022-10-25T10:50:58.947Z,0.30
2022-10-25T10:51:59.200Z,0.30
2022-10-25T10:53:00.452Z,0.20
2022-10-25T10:53:59.739Z,0.30
2022-10-25T10:55:00.809Z,0.40
2022-10-25T10:56:00.260Z,0.40
2022-10-25T10:57:00.521Z,0.30
2022-10-25T10:58:00.782Z,0.30
2022-10-25T10:59:01.052Z,0.20
2022-10-25T11:00:01.315Z,0.30
2022-10-25T11:01:01.682Z,0.20
2022-10-25T11:02:02.041Z,0.30
2022-10-25T11:03:02.206Z,0.20
2022-10-25T11:04:02.457Z,0.40
2022-10-25T11:05:02.734Z,0.30
2022-10-25T11:06:02.988Z,0.30
2022-10-25T11:07:03.243Z,0.30
2022-10-25T11:08:03.495Z,0.30
2022-10-25T11:09:03.757Z,0.20
2022-10-25T11:10:04.016Z,0.30
2022-10-25T11:11:04.306Z,0.40
2022-10-25T11:12:04.564Z,0.30
2022-10-25T11:13:04.817Z,0.20
2022-10-25T11:14:05.090Z,0.20
2022-10-25T11:15:05.357Z,0.20
2022-10-25T11:16:05.617Z,0.30
2022-10-25T11:17:05.878Z,0.20
2022-10-25T11:18:06.131Z,0.40
2022-10-25T11:19:06.398Z,0.20
2022-10-25T11:20:07.537Z,0.20
2022-10-25T11:21:07.009Z,0.70
2022-10-25T11:22:07.270Z,0.30
2022-10-25T11:23:07.531Z,0.20
2022-10-25T11:24:07.793Z,0.20
2022-10-25T11:25:08.850Z,0.30
2022-10-25T11:26:08.291Z,0.20
2022-10-25T11:27:08.677Z,0.20
2022-10-25T11:28:08.792Z,0.10
2022-10-25T11:29:09.052Z,0.20
2022-10-25T11:30:09.521Z,0.20
2022-10-25T11:31:09.610Z,0.20
2022-10-25T11:32:09.871Z,0.20
2022-10-25T11:33:10.132Z,0.20
2022-10-25T11:34:10.383Z,0.20
2022-10-25T11:35:11.463Z,0.20
2022-10-25T11:36:10.894Z,0.30
2022-10-25T11:37:11.165Z,0.20
2022-10-25T11:38:11.425Z,0.10
2022-10-25T11:39:11.685Z,0.20
2022-10-25T11:40:11.966Z,0.20
2022-10-25T11:41:12.224Z,0.30
2022-10-25T11:42:12.500Z,0.10
2022-10-25T11:43:12.787Z,0.20
2022-10-25T11:44:13.047Z,0.20
2022-10-25T11:45:13.316Z,0.20
2022-10-25T11:46:13.569Z,0.20
2022-10-25T11:47:13.847Z,0.20
2022-10-25T11:48:14.097Z,0.40
2022-10-25T11:49:14.358Z,0.20
2022-10-25T11:50:15.427Z,0.20
2022-10-25T11:51:14.879Z,0.20
2022-10-25T11:53:15.462Z,0.20
2022-10-25T11:54:15.711Z,0.20
2022-10-25T11:55:16.792Z,0.20
2022-10-25T11:56:16.222Z,0.20
2022-10-25T11:57:16.484Z,0.20
2022-10-25T11:58:16.752Z,0.20
2022-10-25T11:59:17.411Z,0.20
2022-10-25T12:00:17.317Z,0.20
2022-10-25T12:01:17.578Z,0.10
2022-10-25T12:02:17.917Z,0.30
2022-10-25T12:03:18.132Z,0.20
2022-10-25T12:04:18.393Z,0.20
2022-10-25T12:05:18.674Z,0.20
2022-10-25T12:06:18.934Z,0.40
2022-10-25T12:07:19.192Z,0.20
2022-10-25T12:08:19.445Z,0.30
2022-10-25T12:09:19.704Z,0.20
2022-10-25T12:10:19.973Z,0.30
2022-10-25T12:11:20.233Z,0.20
2022-10-25T12:12:20.475Z,0.20
2022-10-25T12:13:20.737Z,0.20
2022-10-25T12:14:20.996Z,0.30
2022-10-25T12:15:21.277Z,0.10
2022-10-25T12:16:21.538Z,0.20
2022-10-25T12:17:21.795Z,0.20
2022-10-25T12:18:26.026Z,0.10
2022-10-25T12:19:22.316Z,0.30
2022-10-25T12:20:23.531Z,0.20
2022-10-25T12:21:22.858Z,0.20
2022-10-25T12:22:23.118Z,0.30
2022-10-25T12:23:23.369Z,0.30
2022-10-25T12:24:23.629Z,0.20
2022-10-25T12:25:24.699Z,0.20
2022-10-25T12:26:24.140Z,0.20
2022-10-25T12:27:24.412Z,0.20
2022-10-25T12:28:24.670Z,0.20
2022-10-25T12:29:24.936Z,0.10
2022-10-25T12:31:25.451Z,0.30
2022-10-25T12:32:25.702Z,0.40
2022-10-25T12:33:25.962Z,0.30
2022-10-25T12:34:26.223Z,0.30
2022-10-25T12:35:27.282Z,0.40
2022-10-25T12:36:26.723Z,0.40
2022-10-25T12:37:26.991Z,0.20
2022-10-25T12:38:27.241Z,0.20
2022-10-25T12:39:27.512Z,0.20
2022-10-25T12:40:27.776Z,0.40
2022-10-25T12:41:28.034Z,0.20
2022-10-25T12:42:28.295Z,0.30
2022-10-25T12:43:28.560Z,0.30
2022-10-25T12:44:28.805Z,0.30
2022-10-25T12:45:29.083Z,0.30
2022-10-25T12:46:29.334Z,0.20
2022-10-25T12:47:29.603Z,0.30
2022-10-25T12:48:29.861Z,0.20
2022-10-25T12:49:30.116Z,0.30
2022-10-25T12:50:31.179Z,0.40
2022-10-25T12:51:30.628Z,0.40
2022-10-25T12:52:30.885Z,0.40
2022-10-25T12:53:31.138Z,0.40
2022-10-25T12:54:31.398Z,0.10
2022-10-25T12:55:32.479Z,0.20
2022-10-25T12:56:31.919Z,0.30
2022-10-25T12:57:32.170Z,0.30
2022-10-25T12:58:32.430Z,0.30
2022-10-25T12:59:32.689Z,0.20
2022-10-25T13:00:32.958Z,0.30
2022-10-25T13:01:33.262Z,0.30
2022-10-25T13:02:33.524Z,0.60
2022-10-25T13:03:33.782Z,0.30
2022-10-25T13:04:34.032Z,0.20
2022-10-25T13:05:35.102Z,0.30
2022-10-25T13:06:34.544Z,0.30
2022-10-25T13:07:34.795Z,0.30
2022-10-25T13:08:35.053Z,0.30
2022-10-25T13:09:35.313Z,0.40
2022-10-25T13:10:35.574Z,0.20
2022-10-25T13:11:35.833Z,0.40
2022-10-25T13:12:36.085Z,0.30
2022-10-25T13:13:36.347Z,0.10
2022-10-25T13:14:36.601Z,0.60
2022-10-25T13:15:36.865Z,0.30
2022-10-25T13:16:37.127Z,0.30
2022-10-25T13:17:37.404Z,0.20
2022-10-25T13:18:37.657Z,0.30
2022-10-25T13:19:55.041Z,0.30
2022-10-25T13:20:40.057Z,0.30
2022-10-25T13:21:38.397Z,0.20
2022-10-25T13:22:39.403Z,0.30
2022-10-25T13:23:38.935Z,0.30
2022-10-25T13:24:39.188Z,0.20
2022-10-25T13:25:39.447Z,0.30
2022-10-25T13:26:39.718Z,0.20